DAAGDAOO

Guest
Details From DAAG - Alger Houari Boumediene
To DAOO - ES SENIA
Flight Number -
Tags generated
Created
Modified
Stats Distance 197 nm / 366 km
Max Altitude 24,500 ft / 7,468 m
Waypoints 4
Social Downloads 1
Likes 0
Share VATSIM

Download

Looking for another format? Having issues loading an existing format? Contact us
Advertisement - Login to hide

Notes

Basic altitude profile: - Ascent Rate: 2500ft/min - Ascent Speed: 250kts - Cruise Altitude: 12000ft - Cruise Speed: 420kts - Descent Rate: 1500ft/min - Descent Speed: 250kts Options: - Use NATs: yes - Use PACOTS: yes - Use low airways: no - Use high airways: yes

Route

DAAG DAHRA UA411 MOS DAOO

ID Type Via Altitude Latitude Longitude Leg Dist Tot Dist Heading (true) Name
O DAAG APT - 0 ft / 0 m 36.69752˚ 3.21308˚ - 0 nm - Alger Houari Boumediene
DAHRA FIX - 24,100 ft / 7,346 m 36.38333˚ 1.50000˚ 84 nm 84 nm 258° / 257° -
MOS VOR UA411 (AWY-HI) 24,500 ft / 7,468 m 35.89861˚ 0.13639˚ 72 nm 157 nm 247° / 246° MOSTAGANEM VOR-DME
O DAOO APT - 0 ft / 0 m 35.62386˚ -0.62118˚ 40 nm 197 nm 246° / 246° ES SENIA

Altitude Profile

Advertisement - Login to hide

Weather


0- 5 10 15 20 25 30 35+ Temperature / ° C

Clouds and Precipitation
Forecast for 2017-12-13 00:00 UTC. Updated an hour ago

Ground ~20,000 ft ~40,000 ft Winds

DAAG

Details ICAO DAAG (ALG)
Name Alger Houari Boumediene
Region Algeria
Timezone Africa/Algiers (UTC+1.0)
Stats Elevation 82 ft / 25 m (AMSL)
Location 36.697521° 3.213079°
Runways 2
Magnetic Variation 1.057° E

METAR

DAAG 122000Z 22005KT 190V250 9999 -DZ FEW020TCU SCT043 BKN100 12/09 Q1021

Decode

TAF

TAF DAAG 121700Z 1218/1318 VRB02KT 9999 FEW020 SCT040 BKN100 PROB40 TEMPO 1218/1224 22010KT 5000 -RA FEW023CB BECMG 1306/1309 30010KT

Decode

Departure Runways

ID Width Length Bearing (true) Bearing (mag) Surface Threshold Offset Overrun Length
05 197 ft / 60 m 11,459 ft / 3,493 m 52.87° 51.81° Asphalt 0 ft / 0 m 0 ft / 0 m
09 148 ft / 45 m 11,442 ft / 3,487 m 91.75° 90.69° Asphalt 0 ft / 0 m 1,017 ft / 310 m
23 197 ft / 60 m 11,459 ft / 3,493 m 232.89° 231.83° Asphalt 0 ft / 0 m 0 ft / 0 m
27 148 ft / 45 m 11,442 ft / 3,487 m 271.78° 270.72° Asphalt 0 ft / 0 m 0 ft / 0 m

DAOO

Details ICAO DAOO (ORN)
Name ES SENIA
Region Algeria
Timezone Africa/Algiers (UTC+1.0)
Stats Elevation 295 ft / 90 m (AMSL)
Location 35.623858° -0.621183°
Runways 1
Magnetic Variation 0.151° E

METAR

DAOO 122000Z 23004KT 9999 BKN033 11/09 Q1021

Decode

TAF

TAF DAOO 121700Z 1218/1318 28005KT 9999 FEW020 SCT033 SCT233 BECMG 1219/1221 VRB02KT 9999 FEW026 BECMG 1215/1218 04005KT CAVOK

Decode

Destination Runways

ID Width Length Bearing (true) Bearing (mag) Surface Threshold Offset Overrun Length
07 148 ft / 45 m 10,006 ft / 3,050 m 67.06° 66.91° Asphalt 0 ft / 0 m 328 ft / 100 m
25 148 ft / 45 m 10,006 ft / 3,050 m 247.08° 246.93° Asphalt 196 ft / 60 m 0 ft / 0 m

Popular Alternatives